sensor_id;sensor_type;location;lat;lon;timestamp;temperature;humidity
23729;DHT22;12045;60.214;24.724;2023-07-31T04:19:06;15.80;99.90
23729;DHT22;12045;60.214;24.724;2023-07-31T04:21:36;15.70;99.90
23729;DHT22;12045;60.214;24.724;2023-07-31T04:24:04;15.60;99.90
23729;DHT22;12045;60.214;24.724;2023-07-31T04:26:33;15.60;99.90
23729;DHT22;12045;60.214;24.724;2023-07-31T04:29:07;15.50;99.90
23729;DHT22;12045;60.214;24.724;2023-07-31T04:31:35;15.50;99.90
23729;DHT22;12045;60.214;24.724;2023-07-31T04:34:05;15.60;99.90
23729;DHT22;12045;60.214;24.724;2023-07-31T04:36:34;15.60;99.90
23729;DHT22;12045;60.214;24.724;2023-07-31T04:39:03;15.60;99.90
23729;DHT22;12045;60.214;24.724;2023-07-31T04:41:31;15.60;99.90
23729;DHT22;12045;60.214;24.724;2023-07-31T04:43:59;15.70;99.90
23729;DHT22;12045;60.214;24.724;2023-07-31T04:46:27;15.60;99.90
23729;DHT22;12045;60.214;24.724;2023-07-31T04:48:57;15.80;99.90
23729;DHT22;12045;60.214;24.724;2023-07-31T04:51:25;15.90;99.90
23729;DHT22;12045;60.214;24.724;2023-07-31T04:53:54;16.00;99.90
23729;DHT22;12045;60.214;24.724;2023-07-31T04:56:26;16.40;99.90
23729;DHT22;12045;60.214;24.724;2023-07-31T04:58:54;16.10;99.90
23729;DHT22;12045;60.214;24.724;2023-07-31T05:01:22;16.10;99.90
23729;DHT22;12045;60.214;24.724;2023-07-31T05:03:49;16.00;99.90
23729;DHT22;12045;60.214;24.724;2023-07-31T05:06:18;16.10;99.90
23729;DHT22;12045;60.214;24.724;2023-07-31T05:08:50;16.00;99.90
23729;DHT22;12045;60.214;24.724;2023-07-31T05:11:18;16.00;99.90
23729;DHT22;12045;60.214;24.724;2023-07-31T05:13:45;16.10;99.90
23729;DHT22;12045;60.214;24.724;2023-07-31T05:16:14;16.10;99.90
23729;DHT22;12045;60.214;24.724;2023-07-31T05:18:42;16.00;99.90
23729;DHT22;12045;60.214;24.724;2023-07-31T05:21:13;16.10;99.90
23729;DHT22;12045;60.214;24.724;2023-07-31T05:23:42;16.10;99.90
23729;DHT22;12045;60.214;24.724;2023-07-31T05:26:12;16.20;99.90
23729;DHT22;12045;60.214;24.724;2023-07-31T05:28:41;16.30;99.90
23729;DHT22;12045;60.214;24.724;2023-07-31T05:31:09;16.50;99.90
23729;DHT22;12045;60.214;24.724;2023-07-31T05:33:37;16.40;99.90
23729;DHT22;12045;60.214;24.724;2023-07-31T05:36:05;16.40;99.90
23729;DHT22;12045;60.214;24.724;2023-07-31T05:41:13;16.40;99.90
23729;DHT22;12045;60.214;24.724;2023-07-31T05:43:45;16.60;99.90
23729;DHT22;12045;60.214;24.724;2023-07-31T05:46:34;16.80;99.90
23729;DHT22;12045;60.214;24.724;2023-07-31T05:49:04;16.70;99.90
23729;DHT22;12045;60.214;24.724;2023-07-31T05:51:33;16.60;99.90
23729;DHT22;12045;60.214;24.724;2023-07-31T05:54:05;16.30;99.90
23729;DHT22;12045;60.214;24.724;2023-07-31T05:56:33;16.70;99.90
23729;DHT22;12045;60.214;24.724;2023-07-31T05:59:01;16.80;99.90
23729;DHT22;12045;60.214;24.724;2023-07-31T06:01:30;16.60;99.90
23729;DHT22;12045;60.214;24.724;2023-07-31T06:03:58;16.70;99.90
23729;DHT22;12045;60.214;24.724;2023-07-31T06:06:25;16.80;99.90
23729;DHT22;12045;60.214;24.724;2023-07-31T06:08:54;16.80;99.90
23729;DHT22;12045;60.214;24.724;2023-07-31T06:11:21;16.90;99.90
23729;DHT22;12045;60.214;24.724;2023-07-31T06:13:49;16.80;99.90
23729;DHT22;12045;60.214;24.724;2023-07-31T06:16:17;16.80;99.90
23729;DHT22;12045;60.214;24.724;2023-07-31T06:18:45;16.80;99.90
23729;DHT22;12045;60.214;24.724;2023-07-31T06:21:12;16.70;99.90
23729;DHT22;12045;60.214;24.724;2023-07-31T06:23:43;16.70;99.90
23729;DHT22;12045;60.214;24.724;2023-07-31T06:26:11;16.70;99.90
23729;DHT22;12045;60.214;24.724;2023-07-31T06:28:39;16.80;99.90
23729;DHT22;12045;60.214;24.724;2023-07-31T06:31:07;16.90;99.90
23729;DHT22;12045;60.214;24.724;2023-07-31T06:33:35;16.90;99.90
23729;DHT22;12045;60.214;24.724;2023-07-31T06:36:03;16.80;99.90
23729;DHT22;12045;60.214;24.724;2023-07-31T06:38:30;16.90;99.90
23729;DHT22;12045;60.214;24.724;2023-07-31T06:40:58;17.00;99.90
23729;DHT22;12045;60.214;24.724;2023-07-31T06:43:25;17.10;99.90
23729;DHT22;12045;60.214;24.724;2023-07-31T06:45:55;17.00;99.90
23729;DHT22;12045;60.214;24.724;2023-07-31T06:48:23;16.90;99.90
23729;DHT22;12045;60.214;24.724;2023-07-31T06:50:50;16.90;99.90
23729;DHT22;12045;60.214;24.724;2023-07-31T06:53:19;17.80;99.90
23729;DHT22;12045;60.214;24.724;2023-07-31T06:55:46;17.00;99.90
23729;DHT22;12045;60.214;24.724;2023-07-31T06:58:15;17.10;99.90
23729;DHT22;12045;60.214;24.724;2023-07-31T07:00:43;17.10;99.90
23729;DHT22;12045;60.214;24.724;2023-07-31T07:03:10;17.10;99.90
23729;DHT22;12045;60.214;24.724;2023-07-31T07:05:38;17.30;99.90
23729;DHT22;12045;60.214;24.724;2023-07-31T07:08:07;17.30;99.90
23729;DHT22;12045;60.214;24.724;2023-07-31T07:10:35;17.40;99.90
23729;DHT22;12045;60.214;24.724;2023-07-31T07:13:02;17.30;99.90
23729;DHT22;12045;60.214;24.724;2023-07-31T07:15:31;17.40;99.90
23729;DHT22;12045;60.214;24.724;2023-07-31T07:17:59;17.50;99.90
23729;DHT22;12045;60.214;24.724;2023-07-31T07:20:27;17.30;99.90
23729;DHT22;12045;60.214;24.724;2023-07-31T07:22:54;17.60;99.90
23729;DHT22;12045;60.214;24.724;2023-07-31T07:25:23;17.70;99.90
23729;DHT22;12045;60.214;24.724;2023-07-31T07:27:51;17.70;99.90
23729;DHT22;12045;60.214;24.724;2023-07-31T07:30:19;17.90;99.90
23729;DHT22;12045;60.214;24.724;2023-07-31T07:32:49;17.70;99.90
23729;DHT22;12045;60.214;24.724;2023-07-31T07:35:16;18.10;99.90
23729;DHT22;12045;60.214;24.724;2023-07-31T07:37:44;18.10;99.90
23729;DHT22;12045;60.214;24.724;2023-07-31T07:40:12;18.20;99.90
23729;DHT22;12045;60.214;24.724;2023-07-31T07:42:39;18.30;99.90
23729;DHT22;12045;60.214;24.724;2023-07-31T07:45:08;18.30;99.90
23729;DHT22;12045;60.214;24.724;2023-07-31T07:47:36;18.30;99.90
23729;DHT22;12045;60.214;24.724;2023-07-31T07:50:04;18.40;99.90
23729;DHT22;12045;60.214;24.724;2023-07-31T07:52:35;18.40;99.90
23729;DHT22;12045;60.214;24.724;2023-07-31T07:55:03;18.40;99.90
23729;DHT22;12045;60.214;24.724;2023-07-31T07:57:31;18.60;99.90
23729;DHT22;12045;60.214;24.724;2023-07-31T08:00:00;18.60;99.90
23729;DHT22;12045;60.214;24.724;2023-07-31T08:02:31;18.70;99.90
23729;DHT22;12045;60.214;24.724;2023-07-31T08:05:05;18.80;99.90
23729;DHT22;12045;60.214;24.724;2023-07-31T08:07:35;18.80;99.90
23729;DHT22;12045;60.214;24.724;2023-07-31T08:10:05;18.90;99.90
23729;DHT22;12045;60.214;24.724;2023-07-31T08:12:35;18.80;99.90
23729;DHT22;12045;60.214;24.724;2023-07-31T08:15:05;18.70;99.90
23729;DHT22;12045;60.214;24.724;2023-07-31T08:17:35;18.70;99.90
23729;DHT22;12045;60.214;24.724;2023-07-31T08:20:05;18.40;99.90
23729;DHT22;12045;60.214;24.724;2023-07-31T08:22:34;18.30;99.90
23729;DHT22;12045;60.214;24.724;2023-07-31T08:25:03;18.20;99.90
23729;DHT22;12045;60.214;24.724;2023-07-31T08:27:32;18.20;99.90
23729;DHT22;12045;60.214;24.724;2023-07-31T08:30:04;18.20;99.90
23729;DHT22;12045;60.214;24.724;2023-07-31T08:38:04;18.40;99.90
23729;DHT22;12045;60.214;24.724;2023-07-31T08:40:35;18.30;99.90
23729;DHT22;12045;60.214;24.724;2023-07-31T08:43:04;18.30;99.90
23729;DHT22;12045;60.214;24.724;2023-07-31T08:45:41;18.40;99.90
23729;DHT22;12045;60.214;24.724;2023-07-31T09:26:54;18.80;99.90
23729;DHT22;12045;60.214;24.724;2023-07-31T09:29:29;18.90;99.90
23729;DHT22;12045;60.214;24.724;2023-07-31T09:31:57;19.00;99.90
23729;DHT22;12045;60.214;24.724;2023-07-31T09:37:21;19.10;99.90
23729;DHT22;12045;60.214;24.724;2023-07-31T09:39:49;19.30;99.90
23729;DHT22;12045;60.214;24.724;2023-07-31T09:42:26;19.50;99.90
23729;DHT22;12045;60.214;24.724;2023-07-31T09:45:09;19.80;99.90
23729;DHT22;12045;60.214;24.724;2023-07-31T09:47:47;19.70;99.90
23729;DHT22;12045;60.214;24.724;2023-07-31T09:50:16;19.50;99.90
23729;DHT22;12045;60.214;24.724;2023-07-31T09:52:48;19.40;99.90
23729;DHT22;12045;60.214;24.724;2023-07-31T09:55:19;19.30;99.90
23729;DHT22;12045;60.214;24.724;2023-07-31T09:58:03;19.30;99.90
23729;DHT22;12045;60.214;24.724;2023-07-31T10:00:35;19.20;99.90
23729;DHT22;12045;60.214;24.724;2023-07-31T10:03:10;19.20;99.90
23729;DHT22;12045;60.214;24.724;2023-07-31T10:05:43;19.10;99.90
23729;DHT22;12045;60.214;24.724;2023-07-31T10:08:15;19.10;99.90
23729;DHT22;12045;60.214;24.724;2023-07-31T10:10:58;19.00;99.90
23729;DHT22;12045;60.214;24.724;2023-07-31T10:13:28;19.10;99.90
23729;DHT22;12045;60.214;24.724;2023-07-31T10:19:27;18.70;99.90
23729;DHT22;12045;60.214;24.724;2023-07-31T11:52:22;19.20;99.90
23729;DHT22;12045;60.214;24.724;2023-07-31T11:54:53;19.30;99.90
23729;DHT22;12045;60.214;24.724;2023-07-31T11:57:24;19.50;99.90
23729;DHT22;12045;60.214;24.724;2023-07-31T12:00:03;19.40;99.90
